Time;durP1;ratioP1;P1;durP2;ratioP2;P2;SDS_P1;SDS_P2;PMS_P1;PMS_P2;Temp;Humidity;BMP_temperature;BMP_pressure;BME280_temperature;BME280_humidity;BME280_pressure;Samples;Min_cycle;Max_cycle;Signal;HPM_P1;HPM_P2
2023/10/09 00:03:06;;;;;;;1.92;0.60;;;8.70;94.40;;;;;;4983487;28;20049;-66
2023/10/09 00:08:10;;;;;;;1.08;0.65;;;8.80;94.40;;;;;;5006604;28;20046;-66
2023/10/09 00:10:44;;;;;;;1.58;0.80;;;8.90;94.70;;;;;;5010253;28;20060;-67
2023/10/09 00:13:10;;;;;;;0.90;0.70;;;9.00;94.10;;;;;;5009531;28;20037;-66
2023/10/09 00:15:36;;;;;;;1.10;0.50;;;9.00;93.50;;;;;;5008988;28;21161;-66
2023/10/09 00:18:05;;;;;;;0.85;0.50;;;9.00;94.30;;;;;;5012019;28;20112;-66
2023/10/09 00:20:39;;;;;;;0.45;0.38;;;9.00;94.90;;;;;;5009419;28;20064;-67
2023/10/09 00:23:15;;;;;;;1.85;0.40;;;8.90;95.30;;;;;;5000302;28;20038;-66
2023/10/09 00:26:16;;;;;;;0.90;0.45;;;8.90;95.20;;;;;;5008211;28;20062;-66
2023/10/09 00:28:44;;;;;;;1.98;0.95;;;9.00;95.40;;;;;;5005645;28;20034;-66
2023/10/09 00:31:15;;;;;;;1.30;0.63;;;9.00;95.50;;;;;;5003027;28;21498;-66
2023/10/09 00:33:42;;;;;;;3.07;0.93;;;8.90;95.80;;;;;;4996016;28;20041;-66
2023/10/09 00:36:10;;;;;;;2.03;0.60;;;8.90;95.40;;;;;;4988595;28;20045;-66
2023/10/09 00:38:51;;;;;;;1.27;0.70;;;8.90;95.40;;;;;;5013357;28;20068;-79
2023/10/09 00:41:24;;;;;;;2.27;0.47;;;9.00;96.50;;;;;;5014321;28;20100;-77
2023/10/09 00:43:51;;;;;;;2.47;0.52;;;9.00;97.70;;;;;;5010751;28;20633;-80
2023/10/09 00:48:50;;;;;;;2.13;0.65;;;8.90;97.50;;;;;;5013313;28;20045;-80
2023/10/09 00:51:24;;;;;;;1.13;0.70;;;8.90;97.80;;;;;;5014801;28;20132;-79
2023/10/09 00:53:52;;;;;;;1.00;0.52;;;9.00;97.50;;;;;;5012989;28;20041;-66
2023/10/09 00:59:06;;;;;;;1.65;0.77;;;9.00;97.90;;;;;;5012109;28;20487;-78
2023/10/09 01:01:36;;;;;;;2.22;0.65;;;8.90;97.70;;;;;;5012173;28;20029;-79
2023/10/09 01:04:14;;;;;;;1.35;0.47;;;8.80;97.90;;;;;;5011687;28;20029;-78
2023/10/09 01:06:44;;;;;;;1.30;0.70;;;8.80;98.60;;;;;;5014132;28;20041;-77
2023/10/09 01:09:14;;;;;;;1.13;0.52;;;8.90;99.50;;;;;;5012661;28;21026;-79
2023/10/09 01:11:48;;;;;;;1.20;0.70;;;8.90;99.30;;;;;;5010491;28;21031;-81
2023/10/09 01:14:15;;;;;;;1.20;0.70;;;9.00;98.60;;;;;;5013631;28;20037;-80
2023/10/09 01:16:42;;;;;;;1.27;0.60;;;9.10;97.90;;;;;;5012072;28;20111;-79
2023/10/09 01:19:13;;;;;;;1.30;0.57;;;9.10;98.50;;;;;;5013679;28;20040;-79
2023/10/09 01:21:42;;;;;;;0.70;0.57;;;9.10;98.00;;;;;;5012605;28;20057;-79
2023/10/09 01:24:08;;;;;;;1.63;0.60;;;9.10;97.40;;;;;;5010189;28;20041;-79
2023/10/09 01:26:46;;;;;;;1.42;0.70;;;9.10;96.90;;;;;;5003492;28;20118;-79
2023/10/09 01:29:19;;;;;;;1.00;0.68;;;9.20;97.20;;;;;;5012044;28;20029;-78
2023/10/09 01:31:55;;;;;;;1.42;0.73;;;9.20;97.30;;;;;;5013467;28;20410;-79
2023/10/09 01:34:24;;;;;;;1.33;0.60;;;9.30;97.70;;;;;;5009019;28;20030;-65
2023/10/09 01:36:59;;;;;;;1.30;0.63;;;9.40;98.00;;;;;;5009493;28;20052;-65
2023/10/09 01:39:39;;;;;;;0.68;0.65;;;9.40;98.30;;;;;;5011331;28;20041;-65
2023/10/09 01:42:05;;;;;;;1.48;0.70;;;9.30;98.30;;;;;;5006638;28;20042;-65
2023/10/09 01:44:35;;;;;;;1.55;0.95;;;9.30;98.50;;;;;;5028694;28;20029;-65
2023/10/09 01:47:07;;;;;;;1.38;0.75;;;9.30;98.60;;;;;;5029196;28;20029;-65
2023/10/09 01:49:41;;;;;;;1.88;0.90;;;9.30;98.20;;;;;;5033068;28;20084;-65
2023/10/09 01:52:16;;;;;;;0.80;0.55;;;9.30;98.20;;;;;;5022448;28;20096;-65
2023/10/09 01:54:49;;;;;;;0.98;0.70;;;9.40;98.40;;;;;;5026412;28;20044;-67
2023/10/09 01:57:16;;;;;;;1.25;0.77;;;9.40;99.00;;;;;;5021467;28;20513;-65
2023/10/09 01:59:44;;;;;;;1.17;0.52;;;9.30;99.10;;;;;;5018965;28;20044;-65
2023/10/09 02:02:33;;;;;;;1.75;0.75;;;9.30;99.10;;;;;;5031723;28;20044;-65
2023/10/09 02:07:51;;;;;;;0.82;0.52;;;9.50;98.30;;;;;;5029592;28;20119;-65
2023/10/09 02:13:10;;;;;;;3.05;0.50;;;9.60;97.90;;;;;;5030718;28;20041;-65
2023/10/09 02:21:39;;;;;;;1.33;0.50;;;9.60;97.90;;;;;;5029859;28;20053;-64
2023/10/09 02:23:50;;;;;;;0.98;0.55;;;9.50;98.90;;;;;;5022017;28;20726;-65
2023/10/09 02:26:25;;;;;;;0.85;0.47;;;9.50;99.60;;;;;;5025199;28;20036;-66
2023/10/09 02:28:58;;;;;;;0.93;0.68;;;9.50;99.60;;;;;;5032372;28;20041;-77
2023/10/09 02:31:27;;;;;;;0.80;0.40;;;9.50;99.90;;;;;;5018178;28;20815;-77
2023/10/09 02:33:55;;;;;;;1.23;0.50;;;9.60;98.70;;;;;;5031595;28;20025;-77
2023/10/09 02:36:24;;;;;;;0.95;0.45;;;9.70;97.90;;;;;;5037079;28;20041;-77
2023/10/09 02:38:53;;;;;;;1.13;0.70;;;9.80;98.00;;;;;;5031663;28;20060;-77
2023/10/09 02:41:20;;;;;;;1.13;0.77;;;9.80;97.40;;;;;;5035558;28;20021;-77
2023/10/09 02:43:46;;;;;;;0.70;0.50;;;9.80;98.70;;;;;;5016188;28;20124;-77
2023/10/09 02:46:17;;;;;;;1.15;0.63;;;9.90;98.70;;;;;;5017060;28;20124;-77
2023/10/09 02:48:45;;;;;;;2.17;0.77;;;9.90;98.40;;;;;;5016858;28;20064;-78
2023/10/09 02:51:22;;;;;;;2.05;0.60;;;9.90;99.10;;;;;;5012833;28;20055;-78
2023/10/09 02:53:49;;;;;;;1.55;0.50;;;9.90;98.70;;;;;;4998394;28;20498;-77
2023/10/09 02:56:18;;;;;;;1.30;0.70;;;9.90;99.90;;;;;;5017332;28;20063;-77
2023/10/09 02:58:43;;;;;;;1.40;0.60;;;9.80;99.90;;;;;;5011883;28;20041;-77
2023/10/09 03:01:14;;;;;;;1.77;0.60;;;9.80;99.90;;;;;;5010177;28;20038;-77
2023/10/09 03:03:45;;;;;;;1.13;0.70;;;9.80;99.90;;;;;;5014340;28;20116;-77
2023/10/09 03:06:12;;;;;;;1.43;0.70;;;9.80;99.90;;;;;;5010279;28;20049;-78
2023/10/09 03:08:40;;;;;;;0.32;0.30;;;9.80;99.00;;;;;;5016223;28;20029;-78
2023/10/09 03:11:13;;;;;;;3.08;0.75;;;9.90;98.70;;;;;;5014942;28;20510;-78
2023/10/09 03:13:43;;;;;;;2.88;0.60;;;9.90;98.90;;;;;;5007862;28;20065;-78
2023/10/09 03:16:18;;;;;;;1.10;0.60;;;9.90;99.30;;;;;;5014135;28;20033;-79
2023/10/09 03:18:46;;;;;;;1.80;0.60;;;9.90;99.10;;;;;;4998651;28;20034;-78
2023/10/09 03:21:14;;;;;;;0.90;0.55;;;9.90;99.00;;;;;;5013305;28;20057;-66
2023/10/09 03:23:40;;;;;;;1.75;0.98;;;9.90;99.20;;;;;;5004212;28;20048;-78
2023/10/09 03:26:07;;;;;;;1.50;0.50;;;9.90;99.30;;;;;;5012843;28;20045;-77
2023/10/09 03:28:33;;;;;;;0.90;0.50;;;10.00;98.90;;;;;;5008134;28;20045;-77
2023/10/09 03:31:02;;;;;;;0.93;0.50;;;10.00;99.00;;;;;;5014175;28;20030;-77
2023/10/09 03:33:32;;;;;;;0.63;0.40;;;10.00;98.70;;;;;;5013570;28;20509;-77
2023/10/09 03:36:01;;;;;;;1.20;0.65;;;10.10;98.40;;;;;;5015259;28;20115;-78
2023/10/09 03:38:34;;;;;;;1.20;0.73;;;10.10;97.60;;;;;;5013860;28;21000;-78
2023/10/09 03:41:05;;;;;;;1.27;0.60;;;10.10;97.60;;;;;;5017595;28;20051;-66
2023/10/09 03:43:39;;;;;;;4.45;0.70;;;10.10;97.30;;;;;;5003611;28;20423;-66
2023/10/09 03:46:32;;;;;;;1.10;0.80;;;10.20;97.40;;;;;;5012530;28;20045;-66
2023/10/09 03:49:01;;;;;;;1.20;0.60;;;10.10;97.00;;;;;;5007895;28;20050;-66
2023/10/09 03:51:29;;;;;;;1.92;1.20;;;10.10;97.00;;;;;;5011855;28;20059;-66
2023/10/09 03:53:55;;;;;;;1.73;1.30;;;10.10;97.10;;;;;;5006282;28;20033;-66
2023/10/09 03:56:21;;;;;;;1.52;1.08;;;10.10;97.00;;;;;;5010942;28;20138;-66
2023/10/09 03:58:49;;;;;;;1.83;1.02;;;10.10;96.90;;;;;;5012328;28;21248;-77
2023/10/09 04:01:28;;;;;;;4.93;0.90;;;10.10;98.20;;;;;;5007345;28;20033;-66
2023/10/09 04:03:55;;;;;;;7.35;1.02;;;10.10;97.40;;;;;;5010170;28;20518;-66
2023/10/09 04:06:33;;;;;;;2.42;1.02;;;10.20;97.40;;;;;;5011721;28;20056;-66
2023/10/09 04:11:57;;;;;;;0.60;0.47;;;10.20;97.80;;;;;;5013663;28;20520;-66
2023/10/09 04:14:35;;;;;;;4.50;0.55;;;10.20;97.40;;;;;;5011839;28;20038;-66
2023/10/09 04:17:32;;;;;;;2.25;0.70;;;10.10;97.60;;;;;;5010387;28;20498;-66
2023/10/09 04:20:25;;;;;;;1.23;0.65;;;10.00;97.60;;;;;;5013229;28;20422;-77
2023/10/09 04:22:39;;;;;;;1.70;1.00;;;10.00;97.60;;;;;;5009327;28;20157;-77
2023/10/09 04:25:14;;;;;;;2.38;0.60;;;9.90;97.80;;;;;;5011853;28;20037;-77
2023/10/09 04:27:40;;;;;;;0.90;0.65;;;9.90;97.60;;;;;;5010507;28;20033;-77
2023/10/09 04:30:07;;;;;;;0.98;0.80;;;9.90;97.70;;;;;;5006407;28;20064;-76
2023/10/09 04:32:34;;;;;;;2.53;0.60;;;9.80;97.60;;;;;;5000480;28;20627;-75
2023/10/09 04:37:52;;;;;;;2.05;0.88;;;9.80;98.10;;;;;;5005091;28;20052;-66
2023/10/09 04:40:41;;;;;;;6.00;1.35;;;9.90;98.70;;;;;;5006838;28;20044;-66
2023/10/09 04:43:07;;;;;;;0.75;0.47;;;9.90;99.00;;;;;;5017979;28;20131;-65
2023/10/09 04:48:33;;;;;;;2.63;0.93;;;9.90;99.00;;;;;;5029360;28;20059;-66
2023/10/09 04:54:12;;;;;;;2.08;0.68;;;10.00;99.20;;;;;;5037571;28;20056;-76
2023/10/09 04:56:51;;;;;;;0.90;0.63;;;10.00;99.20;;;;;;5020429;28;20048;-66
2023/10/09 04:59:18;;;;;;;1.65;0.80;;;10.00;99.30;;;;;;5030468;28;20072;-66
2023/10/09 05:01:46;;;;;;;1.25;0.82;;;10.00;99.20;;;;;;5031883;28;20136;-65
2023/10/09 05:06:56;;;;;;;1.25;0.82;;;10.10;99.10;;;;;;5023324;28;20137;-66
2023/10/09 05:09:23;;;;;;;2.33;0.93;;;10.20;99.60;;;;;;5021921;28;21209;-66
2023/10/09 05:14:26;;;;;;;3.47;0.80;;;10.20;99.20;;;;;;5021830;28;20039;-67
2023/10/09 05:17:01;;;;;;;5.97;1.02;;;10.20;99.10;;;;;;5020095;28;20041;-66
2023/10/09 05:22:36;;;;;;;2.38;0.93;;;10.20;99.30;;;;;;4978423;28;20048;-67
2023/10/09 05:25:02;;;;;;;2.70;0.85;;;10.20;99.40;;;;;;5013976;28;20033;-66
2023/10/09 05:27:50;;;;;;;2.67;1.10;;;10.20;99.60;;;;;;5007764;28;20566;-66
2023/10/09 05:30:24;;;;;;;2.38;0.80;;;10.20;99.70;;;;;;5024438;28;20037;-67
2023/10/09 05:32:58;;;;;;;4.85;1.17;;;10.20;99.30;;;;;;5022010;28;20040;-66
2023/10/09 05:35:39;;;;;;;1.52;0.95;;;10.20;99.40;;;;;;5024429;28;20037;-66
2023/10/09 05:38:15;;;;;;;3.87;0.90;;;10.20;99.30;;;;;;5030757;28;20099;-66
2023/10/09 05:40:43;;;;;;;3.35;0.77;;;10.30;99.40;;;;;;5026463;28;20283;-66
2023/10/09 05:44:21;;;;;;;2.97;1.10;;;10.30;99.10;;;;;;5029283;28;20616;-66
2023/10/09 05:46:08;;;;;;;2.15;1.05;;;10.30;98.90;;;;;;5033964;28;20809;-66
2023/10/09 05:48:54;;;;;;;1.63;0.80;;;10.40;99.30;;;;;;5032655;28;20068;-77
2023/10/09 05:51:41;;;;;;;1.40;0.65;;;10.30;99.10;;;;;;5020225;28;20148;-76
2023/10/09 05:54:12;;;;;;;1.67;0.90;;;10.30;99.90;;;;;;5039570;28;20091;-76
2023/10/09 06:03:23;;;;;;;2.17;1.23;;;10.30;99.90;;;;;;5038562;28;20106;-77
2023/10/09 06:05:04;;;;;;;1.60;0.93;;;10.20;99.90;;;;;;5036589;28;20046;-76
2023/10/09 06:07:49;;;;;;;2.80;1.10;;;10.20;99.90;;;;;;5027741;28;20048;-65
2023/10/09 06:10:38;;;;;;;2.63;0.95;;;10.20;99.90;;;;;;5035594;28;20029;-65
2023/10/09 06:13:03;;;;;;;1.15;0.82;;;10.20;99.90;;;;;;5036971;28;20168;-66
2023/10/09 06:18:33;;;;;;;1.63;0.98;;;10.20;99.90;;;;;;5034425;28;20187;-65
2023/10/09 06:26:32;;;;;;;1.73;1.17;;;10.20;99.60;;;;;;4998178;28;20041;-76
2023/10/09 06:29:30;;;;;;;2.63;0.77;;;10.20;99.40;;;;;;5035680;28;20441;-76
2023/10/09 06:31:59;;;;;;;1.80;0.93;;;10.20;99.20;;;;;;5035671;28;20140;-76
2023/10/09 06:34:35;;;;;;;3.35;1.45;;;10.20;98.90;;;;;;5036911;28;20899;-76
2023/10/09 06:37:17;;;;;;;1.65;0.88;;;10.20;99.20;;;;;;5033551;28;20041;-75
2023/10/09 06:45:28;;;;;;;4.70;0.90;;;10.20;97.80;;;;;;5028251;28;20033;-77
2023/10/09 06:48:09;;;;;;;1.65;0.73;;;10.20;97.80;;;;;;5033705;28;20038;-76
2023/10/09 06:53:20;;;;;;;1.38;0.85;;;10.40;98.20;;;;;;5035302;28;20099;-78
2023/10/09 06:55:49;;;;;;;8.98;6.68;;;10.40;97.80;;;;;;5035128;28;20037;-77
2023/10/09 06:58:22;;;;;;;19.10;12.82;;;10.50;97.50;;;;;;5026309;28;20041;-77
2023/10/09 07:00:54;;;;;;;9.70;8.68;;;10.50;97.10;;;;;;5027871;28;20513;-78
2023/10/09 07:03:29;;;;;;;5.68;5.18;;;10.60;97.10;;;;;;5034944;28;20065;-78
2023/10/09 07:06:09;;;;;;;4.07;2.83;;;10.70;96.90;;;;;;5040889;28;20040;-78
2023/10/09 07:08:44;;;;;;;2.05;1.40;;;10.80;96.80;;;;;;5030521;28;20521;-76
2023/10/09 07:11:56;;;;;;;2.05;1.23;;;10.80;95.90;;;;;;5021203;28;20049;-78
2023/10/09 07:17:01;;;;;;;1.42;0.70;;;10.90;96.00;;;;;;5034500;28;20450;-78
2023/10/09 07:22:03;;;;;;;1.60;0.68;;;11.10;95.70;;;;;;5024188;28;20040;-66
2023/10/09 07:24:43;;;;;;;1.63;0.70;;;11.10;95.20;;;;;;5030273;28;20037;-66
2023/10/09 07:27:12;;;;;;;4.28;2.15;;;11.10;94.40;;;;;;5031060;28;20037;-66
2023/10/09 07:29:59;;;;;;;26.52;22.00;;;11.20;94.70;;;;;;5019066;28;20033;-66
2023/10/09 07:32:27;;;;;;;68.22;45.03;;;11.20;94.30;;;;;;5025656;28;20110;-66
2023/10/09 07:34:53;;;;;;;20.67;14.55;;;11.30;94.00;;;;;;5030256;28;20032;-66
2023/10/09 07:37:35;;;;;;;25.58;18.50;;;11.20;93.60;;;;;;5039499;28;20041;-66
2023/10/09 07:40:08;;;;;;;11.05;7.13;;;11.30;92.20;;;;;;5033400;28;20041;-66
2023/10/09 07:45:54;;;;;;;12.82;8.73;;;11.40;92.60;;;;;;5040096;28;20573;-66
2023/10/09 07:48:05;;;;;;;8.63;4.70;;;11.40;92.70;;;;;;5035951;28;20516;-66
2023/10/09 07:50:48;;;;;;;6.32;2.35;;;11.50;92.70;;;;;;5028488;28;20056;-66
2023/10/09 07:53:26;;;;;;;1.52;1.00;;;11.60;91.50;;;;;;5031539;28;20140;-66
2023/10/09 07:55:58;;;;;;;4.18;1.63;;;11.60;90.20;;;;;;5037278;28;20049;-66
2023/10/09 07:58:25;;;;;;;3.72;0.98;;;11.60;90.10;;;;;;5031569;28;20029;-77
2023/10/09 08:01:15;;;;;;;1.23;0.82;;;11.60;90.10;;;;;;5036571;28;20047;-66
2023/10/09 08:03:45;;;;;;;9.13;1.75;;;11.60;88.70;;;;;;5025368;28;20033;-66
2023/10/09 08:17:20;;;;;;;1.13;0.47;;;11.80;87.60;;;;;;5032243;28;20095;-66
2023/10/09 08:19:54;;;;;;;2.78;1.10;;;11.90;87.70;;;;;;5030531;28;20036;-66
2023/10/09 08:24:56;;;;;;;2.70;0.98;;;12.00;86.10;;;;;;5033423;28;20107;-67
2023/10/09 08:33:03;;;;;;;2.25;1.00;;;12.00;86.40;;;;;;5031804;28;20056;-66
2023/10/09 08:35:30;;;;;;;0.95;0.68;;;12.00;84.40;;;;;;5031105;28;20047;-78
2023/10/09 08:38:07;;;;;;;1.15;0.95;;;11.90;84.70;;;;;;5034726;28;20037;-78
2023/10/09 08:40:38;;;;;;;2.67;0.60;;;12.00;85.80;;;;;;5026578;28;20127;-79
2023/10/09 08:43:24;;;;;;;3.00;0.90;;;12.00;84.40;;;;;;5018451;28;20048;-79
2023/10/09 08:45:54;;;;;;;4.88;1.20;;;12.00;85.70;;;;;;4996527;28;20186;-79
2023/10/09 08:48:26;;;;;;;2.22;0.85;;;12.10;84.30;;;;;;5012567;28;20041;-79
2023/10/09 08:50:55;;;;;;;1.55;0.75;;;12.10;85.20;;;;;;5008912;28;20026;-79
2023/10/09 08:53:22;;;;;;;2.97;0.98;;;12.20;85.10;;;;;;4994871;28;20054;-78
2023/10/09 08:55:47;;;;;;;2.33;0.77;;;12.20;85.80;;;;;;5012223;28;20084;-64
2023/10/09 08:58:26;;;;;;;1.63;0.90;;;12.30;85.40;;;;;;5012394;28;20445;-65
2023/10/09 09:00:53;;;;;;;3.78;0.80;;;12.30;82.90;;;;;;5011885;28;20042;-65
2023/10/09 09:03:26;;;;;;;7.60;1.20;;;12.30;85.10;;;;;;5013860;28;20038;-66
2023/10/09 09:06:02;;;;;;;3.65;1.00;;;12.40;84.50;;;;;;5009163;28;20104;-65
2023/10/09 09:08:30;;;;;;;1.70;0.70;;;12.50;83.80;;;;;;5014503;28;20581;-65
2023/10/09 09:11:12;;;;;;;2.65;0.60;;;12.50;84.30;;;;;;5012997;28;20151;-77
2023/10/09 09:13:41;;;;;;;;;;;12.60;82.90;;;;;;5012077;28;20091;-78
2023/10/09 09:16:17;;;;;;;5.03;1.02;;;12.50;81.90;;;;;;5013021;28;19916;-77
2023/10/09 09:19:00;;;;;;;5.45;1.20;;;12.50;84.00;;;;;;5010155;28;20036;-77
2023/10/09 09:21:27;;;;;;;2.47;1.05;;;12.50;83.70;;;;;;5019095;28;20037;-78
2023/10/09 09:24:06;;;;;;;3.55;0.80;;;12.50;82.80;;;;;;4983743;28;20040;-78
2023/10/09 09:26:46;;;;;;;2.50;0.93;;;12.50;82.40;;;;;;5008218;28;20219;-78
2023/10/09 09:29:18;;;;;;;2.72;1.23;;;12.50;83.30;;;;;;5017169;28;20045;-77
2023/10/09 09:32:15;;;;;;;8.45;1.20;;;12.50;83.70;;;;;;5013418;28;20422;-77
2023/10/09 09:34:54;;;;;;;1.02;0.55;;;12.50;83.80;;;;;;5008265;28;20042;-79
2023/10/09 09:37:33;;;;;;;1.05;0.82;;;12.60;82.20;;;;;;5004760;28;20214;-78
2023/10/09 09:40:15;;;;;;;5.85;1.02;;;12.80;82.50;;;;;;4969601;28;20088;-78
2023/10/09 09:42:48;;;;;;;4.70;3.50;;;12.80;82.70;;;;;;4998025;28;20053;-78
2023/10/09 09:45:16;;;;;;;2.45;1.20;;;12.90;82.80;;;;;;5012224;28;20170;-78
2023/10/09 09:47:51;;;;;;;0.90;0.70;;;12.90;81.80;;;;;;5012302;28;20029;-66
2023/10/09 09:50:29;;;;;;;2.85;1.10;;;12.90;82.20;;;;;;5011699;28;20038;-66
2023/10/09 09:52:56;;;;;;;2.58;0.90;;;13.00;82.30;;;;;;5019240;28;20045;-66
2023/10/09 09:55:30;;;;;;;1.30;0.60;;;13.00;80.50;;;;;;5015982;28;20063;-66
2023/10/09 09:57:57;;;;;;;4.18;1.00;;;13.00;81.60;;;;;;5009061;28;20048;-66
2023/10/09 10:03:13;;;;;;;5.22;1.27;;;12.90;80.10;;;;;;5008283;28;20087;-65
2023/10/09 10:05:41;;;;;;;4.40;1.00;;;12.90;80.90;;;;;;5008657;28;20107;-65
2023/10/09 10:08:12;;;;;;;2.85;0.80;;;13.10;79.90;;;;;;5013729;28;20025;-65
2023/10/09 10:10:53;;;;;;;3.80;0.80;;;13.20;79.20;;;;;;5018937;28;20049;-65
2023/10/09 10:13:41;;;;;;;2.22;0.70;;;13.30;80.00;;;;;;5015618;28;20045;-65
2023/10/09 10:16:13;;;;;;;1.70;0.88;;;13.50;80.30;;;;;;5011538;28;20041;-65
2023/10/09 10:19:06;;;;;;;2.58;0.73;;;13.60;79.80;;;;;;5016327;28;20132;-65
2023/10/09 10:21:41;;;;;;;2.03;0.70;;;13.70;78.40;;;;;;5016806;28;20076;-65
2023/10/09 10:24:51;;;;;;;1.90;0.85;;;13.60;78.20;;;;;;5016243;28;20047;-65
2023/10/09 10:27:31;;;;;;;2.67;0.80;;;13.50;78.20;;;;;;5017235;28;20041;-78
2023/10/09 10:30:23;;;;;;;1.00;0.70;;;13.40;78.90;;;;;;5009114;28;20045;-78
2023/10/09 10:32:52;;;;;;;7.28;1.15;;;13.40;79.50;;;;;;5005688;28;20049;-79
2023/10/09 10:35:44;;;;;;;3.60;1.00;;;13.60;78.70;;;;;;5004675;28;20041;-78
2023/10/09 10:38:32;;;;;;;;;;;13.70;78.70;;;;;;5023065;28;20077;-79
2023/10/09 10:41:17;;;;;;;1.92;0.70;;;13.80;77.60;;;;;;5019152;28;21507;-79
2023/10/09 10:46:37;;;;;;;3.90;1.05;;;13.80;78.50;;;;;;5012883;28;20095;-79
2023/10/09 10:49:15;;;;;;;1.98;0.90;;;13.90;78.70;;;;;;4996418;28;20621;-79
2023/10/09 10:51:47;;;;;;;1.92;1.13;;;13.90;77.40;;;;;;5011166;28;20060;-80
2023/10/09 10:57:03;;;;;;;2.03;1.00;;;13.80;78.30;;;;;;5012850;28;20038;-79
2023/10/09 10:59:41;;;;;;;4.18;1.05;;;13.90;78.40;;;;;;5006350;28;20041;-78
2023/10/09 11:04:43;;;;;;;4.93;2.40;;;13.80;80.00;;;;;;5015355;28;20041;-78
2023/10/09 11:07:09;;;;;;;3.10;1.23;;;13.90;79.10;;;;;;5008639;28;20083;-78
2023/10/09 11:12:42;;;;;;;6.55;2.88;;;13.90;79.90;;;;;;5015715;28;20046;-78
2023/10/09 11:15:28;;;;;;;9.95;4.97;;;13.90;80.20;;;;;;5009432;28;20047;-78
2023/10/09 11:18:20;;;;;;;7.72;4.57;;;13.80;80.00;;;;;;5011868;28;20057;-79
2023/10/09 11:28:58;;;;;;;3.80;1.20;;;13.90;79.50;;;;;;5017257;28;20540;-66
2023/10/09 11:31:24;;;;;;;5.50;1.55;;;13.90;80.80;;;;;;5011178;28;20589;-64
2023/10/09 11:33:51;;;;;;;7.35;1.10;;;13.80;82.10;;;;;;5010370;28;20061;-66
2023/10/09 11:36:21;;;;;;;3.92;2.15;;;13.80;83.20;;;;;;5017297;28;20140;-67
2023/10/09 11:38:49;;;;;;;3.35;0.93;;;13.70;83.60;;;;;;5014294;28;20124;-77
2023/10/09 11:41:19;;;;;;;5.28;1.00;;;13.70;84.80;;;;;;5019096;28;20055;-66
2023/10/09 11:43:52;;;;;;;2.75;1.20;;;13.60;86.90;;;;;;5018064;28;20033;-67
2023/10/09 11:54:50;;;;;;;3.30;1.08;;;13.70;90.90;;;;;;4951544;28;21189;-67
2023/10/09 11:57:17;;;;;;;7.72;1.33;;;13.70;90.70;;;;;;4959101;28;20034;-76
2023/10/09 11:59:43;;;;;;;3.55;1.15;;;13.70;91.70;;;;;;4987016;28;20032;-66
2023/10/09 12:02:12;;;;;;;7.03;1.05;;;13.80;90.60;;;;;;5038121;28;20417;-66
2023/10/09 12:04:41;;;;;;;3.08;0.82;;;13.80;91.30;;;;;;5026209;28;20567;-66
2023/10/09 12:07:09;;;;;;;10.13;2.70;;;13.80;91.10;;;;;;5027219;28;20033;-66
2023/10/09 12:09:37;;;;;;;2.17;1.00;;;13.90;90.80;;;;;;5026850;28;20560;-66
2023/10/09 12:12:04;;;;;;;3.10;0.93;;;14.00;90.00;;;;;;5026294;28;20041;-67
2023/10/09 12:14:37;;;;;;;3.88;1.00;;;14.00;90.10;;;;;;5028224;28;20033;-66
2023/10/09 12:17:07;;;;;;;2.15;1.20;;;13.80;89.90;;;;;;5029313;28;20111;-77
2023/10/09 12:19:33;;;;;;;2.67;0.80;;;13.60;87.30;;;;;;5023526;28;20036;-77
2023/10/09 12:22:06;;;;;;;0.98;0.75;;;13.50;89.10;;;;;;5037833;28;20082;-77
2023/10/09 12:24:37;;;;;;;4.43;0.82;;;13.60;90.00;;;;;;5025403;28;20497;-78
2023/10/09 12:27:09;;;;;;;2.97;1.30;;;13.70;88.20;;;;;;5029848;28;20037;-77
2023/10/09 12:29:35;;;;;;;2.95;0.80;;;13.80;88.80;;;;;;5033163;28;20362;-78
2023/10/09 12:32:02;;;;;;;2.92;1.02;;;13.90;87.80;;;;;;5026041;28;21770;-78
2023/10/09 12:34:30;;;;;;;3.20;1.20;;;13.80;88.70;;;;;;5033913;28;20044;-78
2023/10/09 12:37:01;;;;;;;5.05;1.10;;;13.80;89.10;;;;;;5030606;28;20120;-78
2023/10/09 12:39:33;;;;;;;4.60;0.95;;;13.80;89.50;;;;;;5013705;28;20061;-78
2023/10/09 12:42:06;;;;;;;2.88;0.90;;;13.80;89.70;;;;;;5031627;28;20056;-78
2023/10/09 12:44:38;;;;;;;4.15;1.23;;;13.90;89.70;;;;;;5020071;28;20042;-78
2023/10/09 12:47:11;;;;;;;3.25;1.05;;;13.90;88.90;;;;;;5017197;28;20064;-78
2023/10/09 12:49:39;;;;;;;;;;;13.90;89.20;;;;;;5017164;28;20041;-78
2023/10/09 12:52:15;;;;;;;3.53;0.70;;;13.90;91.10;;;;;;5010911;28;20362;-66
2023/10/09 12:54:41;;;;;;;2.45;1.17;;;13.80;90.30;;;;;;5014667;28;20044;-77
2023/10/09 12:57:13;;;;;;;2.13;0.75;;;13.80;90.70;;;;;;5016551;28;20052;-77
2023/10/09 12:59:45;;;;;;;5.38;1.05;;;13.70;90.40;;;;;;5014877;28;20045;-77
2023/10/09 13:02:13;;;;;;;3.60;1.00;;;13.60;90.80;;;;;;5006186;28;22577;-69
2023/10/09 13:04:42;;;;;;;4.72;0.95;;;13.60;92.20;;;;;;4990512;28;20646;-76
2023/10/09 13:07:08;;;;;;;3.13;0.90;;;13.60;92.30;;;;;;5009026;28;20068;-76
2023/10/09 13:09:42;;;;;;;1.77;0.95;;;13.70;92.90;;;;;;5013220;28;20033;-76
2023/10/09 13:12:17;;;;;;;6.50;2.45;;;13.70;90.80;;;;;;5009481;28;20128;-77
2023/10/09 13:14:43;;;;;;;13.52;6.93;;;13.70;92.20;;;;;;5013589;28;20037;-77
2023/10/09 13:17:09;;;;;;;4.35;2.47;;;13.70;92.40;;;;;;5015518;28;20041;-76
2023/10/09 13:19:35;;;;;;;4.88;2.78;;;13.80;91.90;;;;;;5015751;28;20033;-76
2023/10/09 13:22:03;;;;;;;5.03;1.80;;;13.90;92.80;;;;;;5012042;28;20026;-76
2023/10/09 13:24:30;;;;;;;7.85;3.03;;;13.90;94.00;;;;;;4992087;28;20103;-76
2023/10/09 13:26:58;;;;;;;4.53;2.30;;;13.90;93.60;;;;;;5012641;28;20373;-77
2023/10/09 13:29:25;;;;;;;7.20;3.08;;;13.80;93.20;;;;;;5011325;28;20037;-77
2023/10/09 13:31:57;;;;;;;3.60;0.95;;;13.90;94.90;;;;;;4991798;28;20183;-77
2023/10/09 13:34:27;;;;;;;7.57;1.20;;;13.80;93.40;;;;;;5013770;28;20033;-77
2023/10/09 13:36:55;;;;;;;7.63;1.20;;;13.80;93.30;;;;;;5013556;28;20149;-77
2023/10/09 13:39:27;;;;;;;2.85;1.13;;;13.80;93.70;;;;;;5012934;28;20026;-77
2023/10/09 13:41:58;;;;;;;2.83;1.10;;;13.80;94.60;;;;;;5009345;28;20045;-76
2023/10/09 13:44:34;;;;;;;3.83;1.40;;;13.80;95.70;;;;;;5010491;28;20152;-76
2023/10/09 13:47:09;;;;;;;4.72;1.30;;;13.80;95.70;;;;;;5028320;28;20039;-77
2023/10/09 13:49:37;;;;;;;2.65;1.25;;;13.80;95.50;;;;;;5024123;28;20103;-77
2023/10/09 13:52:03;;;;;;;5.38;1.75;;;13.70;95.80;;;;;;5019910;28;20041;-76
2023/10/09 13:56:58;;;;;;;2.47;1.42;;;13.50;97.60;;;;;;5025224;28;20053;-76
2023/10/09 13:59:27;;;;;;;1.98;1.20;;;13.50;96.50;;;;;;5020274;28;20090;-76
2023/10/09 14:01:56;;;;;;;4.45;1.40;;;13.50;96.80;;;;;;4996693;28;20127;-76
2023/10/09 14:04:23;;;;;;;5.57;1.30;;;13.40;97.40;;;;;;5029505;28;20102;-76
2023/10/09 14:07:01;;;;;;;4.97;1.48;;;13.40;97.90;;;;;;4996239;28;20671;-76
2023/10/09 14:09:28;;;;;;;5.60;1.15;;;13.40;99.00;;;;;;5032129;28;20037;-76
2023/10/09 14:12:06;;;;;;;2.03;1.27;;;13.30;99.70;;;;;;5031883;28;20404;-75
2023/10/09 14:14:38;;;;;;;3.58;1.25;;;13.30;99.50;;;;;;5027711;28;20096;-76
2023/10/09 14:17:13;;;;;;;5.85;1.67;;;13.30;99.80;;;;;;5021149;28;20061;-77
2023/10/09 14:19:50;;;;;;;2.08;1.35;;;13.20;99.00;;;;;;5017140;28;20050;-77
2023/10/09 14:22:21;;;;;;;3.63;1.33;;;13.10;98.40;;;;;;5025000;28;20087;-76
2023/10/09 14:24:48;;;;;;;2.65;1.23;;;13.00;98.30;;;;;;5019234;28;20065;-77
2023/10/09 14:27:17;;;;;;;2.15;1.40;;;13.00;98.50;;;;;;5030210;28;20047;-66
2023/10/09 14:29:46;;;;;;;3.25;1.17;;;13.00;99.40;;;;;;5026707;28;20028;-66
2023/10/09 14:32:15;;;;;;;4.25;1.27;;;13.10;97.80;;;;;;5008362;28;20057;-67
2023/10/09 14:34:51;;;;;;;7.80;1.38;;;13.20;98.60;;;;;;5029565;28;21187;-67
2023/10/09 14:37:19;;;;;;;97.90;70.20;;;13.10;98.80;;;;;;5027791;28;20044;-66
2023/10/09 14:39:48;;;;;;;17.13;12.25;;;13.10;98.80;;;;;;5019833;28;20048;-66
2023/10/09 14:42:20;;;;;;;3.10;1.98;;;13.10;99.20;;;;;;5019627;28;20800;-66
2023/10/09 14:44:45;;;;;;;1.98;1.52;;;13.10;98.20;;;;;;5032739;28;20037;-75
2023/10/09 14:47:14;;;;;;;46.90;35.53;;;13.10;99.40;;;;;;5026064;28;20043;-76
2023/10/09 14:49:46;;;;;;;26.52;20.20;;;13.10;98.80;;;;;;5017536;28;20090;-78
2023/10/09 14:52:19;;;;;;;11.88;10.68;;;13.00;99.90;;;;;;5027147;28;20045;-77
2023/10/09 14:54:45;;;;;;;7.18;6.30;;;13.00;99.90;;;;;;5030625;28;20200;-77
2023/10/09 14:57:12;;;;;;;8.10;7.05;;;12.90;99.90;;;;;;5031300;28;20042;-77
2023/10/09 14:59:38;;;;;;;3.03;2.33;;;12.80;99.90;;;;;;5014747;28;20127;-76
2023/10/09 15:02:05;;;;;;;5.07;2.38;;;12.80;99.90;;;;;;5009415;28;20131;-75
2023/10/09 15:04:35;;;;;;;4.88;2.22;;;12.70;99.90;;;;;;5022890;28;20033;-74
2023/10/09 15:07:01;;;;;;;11.20;5.95;;;12.60;99.90;;;;;;5018277;28;20095;-75
2023/10/09 15:09:31;;;;;;;6.95;2.80;;;12.60;99.90;;;;;;5017118;28;20144;-75
2023/10/09 15:11:57;;;;;;;5.47;2.20;;;12.50;99.90;;;;;;5017059;28;20165;-74
2023/10/09 15:14:23;;;;;;;11.63;8.82;;;12.40;99.90;;;;;;5018618;28;20048;-75
2023/10/09 15:16:50;;;;;;;6.10;4.10;;;12.30;99.90;;;;;;4992195;28;20412;-75
2023/10/09 15:19:16;;;;;;;4.65;2.47;;;12.20;99.90;;;;;;5018105;28;20536;-75
2023/10/09 15:21:45;;;;;;;3.25;2.28;;;12.20;99.90;;;;;;5017234;28;20074;-67